Caslav, Czech Republic

11:07 AM CET on January 23, 2017 (GMT +0100)
Caslav | | Change Station

Elev 784 ft 49.93 °N, 15.38 °E | Updated 7 minutes ago

Overcast
Overcast
27 °F
Feels Like 18 °F
N
9
Wind Variable Wind from SSE

Today
High -- | Low -- °F
--% Chance of Precip.
Yesterday
High -- | Low -- °F
Precip. -- in
Pressure 30.30 in
Visibility 6.2 miles
Clouds Overcast 1800 ft
Windchill 18 °F
Dew Point 19 °F
Humidity 74%
Rainfall 0.00 in
Snow Depth Not available.
7:43 AM 4:38 PM
Waning Crescent, 19% visible
METAR LKCV 231000Z 16008KT 9999 OVC018 M03/M07 Q1026 NOSIG
Pressure 30.30 in
Visibility 6.2 miles
Clouds Overcast 1800 ft
Windchill 18 °F
Dew Point 19 °F
Humidity 74%
Rainfall 0.00 in
Snow Depth Not available.
7:43 AM 4:38 PM
Waning Crescent, 19% visible
METAR LKCV 231000Z 16008KT 9999 OVC018 M03/M07 Q1026 NOSIG

Get Your Daily Forecast Email!

Thanks for signing up!

Be on the lookout for a verification email in your inbox.

You'll start receiving the daily forecast at 8 AM.

×

10-Day Weather Forecast

×

Almanac

Astronomy

Jan. 23, 2017 Rise Set
Actual Time
Civil Twilight
Nautical Twilight
Astronomical Twilight
Moon
Length of Visible Light
Length of Day
Tomorrow will be .
, % of the Moon is Illuminated

Today's Extremes

Country Highs Country Lows

Community

WunderPhotos

Upload Photos

1,962,540 photos uploaded!

WunderBlog® & News

Nearby

Air Quality

  Air Quality AQ Index Pollutant
Not available.

Snow Depth

Station Depth Elevation

Earthquake Activity

City Distance Mag. Time & Date
Minimum magnitude displayed is 2.5.

Coastal Water Temperatures

Place Temperature

Stations

Nearby Weather Stations

Station Location Temp. Windchill Dew Point Humidity Wind Precip. Elev Updated Type